Time;durP1;ratioP1;P1;durP2;ratioP2;P2;SDS_P1;SDS_P2;PMS_P1;PMS_P2;Temp;Humidity;BMP_temperature;BMP_pressure;BME280_temperature;BME280_humidity;BME280_pressure;Samples;Min_cycle;Max_cycle;Signal;HPM_P1;HPM_P2
2022/01/01 00:00:09;;;;;;;9.93;8.43;;;16.80;99.90;;;;;;5011895;28;20565;-79
2022/01/01 00:02:43;;;;;;;11.30;7.90;;;16.80;99.90;;;;;;4979360;28;20558;-78
2022/01/01 00:05:10;;;;;;;10.07;8.13;;;16.80;99.90;;;;;;4994046;28;20961;-78
2022/01/01 00:07:39;;;;;;;11.27;7.70;;;16.80;99.90;;;;;;5011920;28;20715;-78
2022/01/01 00:10:07;;;;;;;9.27;7.33;;;16.80;99.90;;;;;;4994331;28;20592;-78
2022/01/01 00:12:33;;;;;;;9.63;7.20;;;16.80;99.90;;;;;;4993985;28;20711;-78
2022/01/01 00:14:59;;;;;;;9.13;6.27;;;16.80;99.90;;;;;;5011550;28;20558;-78
2022/01/01 00:17:24;;;;;;;9.07;6.50;;;16.80;99.90;;;;;;5016045;28;20708;-78
2022/01/01 00:19:50;;;;;;;9.10;6.83;;;16.80;99.90;;;;;;5011641;28;20661;-78
2022/01/01 00:22:17;;;;;;;10.93;6.67;;;16.80;99.90;;;;;;4994105;28;20576;-78
2022/01/01 00:24:42;;;;;;;8.20;6.73;;;16.80;99.90;;;;;;5011460;28;20170;-79
2022/01/01 00:27:08;;;;;;;9.20;6.83;;;16.80;99.90;;;;;;4994085;28;20569;-79
2022/01/01 00:29:34;;;;;;;11.33;7.07;;;16.80;99.90;;;;;;4994023;28;20167;-79
2022/01/01 00:31:59;;;;;;;7.50;6.43;;;16.80;99.90;;;;;;5011384;28;20186;-79
2022/01/01 00:34:25;;;;;;;8.00;5.87;;;16.80;99.90;;;;;;5011370;28;20171;-79
2022/01/01 00:36:51;;;;;;;7.80;5.87;;;16.80;99.90;;;;;;5011367;28;20517;-79
2022/01/01 00:39:17;;;;;;;8.97;6.00;;;16.80;99.90;;;;;;5011481;28;20221;-79
2022/01/01 00:41:43;;;;;;;8.47;6.77;;;16.70;99.90;;;;;;4993556;28;20246;-79
2022/01/01 00:44:08;;;;;;;7.10;5.70;;;16.70;99.90;;;;;;5011008;28;20224;-79
2022/01/01 00:46:34;;;;;;;7.57;5.47;;;16.70;99.90;;;;;;5011386;28;20574;-79
2022/01/01 00:49:00;;;;;;;8.50;5.47;;;16.70;99.90;;;;;;4993907;28;20177;-79
2022/01/01 00:51:26;;;;;;;6.80;4.83;;;16.70;99.90;;;;;;4993745;28;20171;-77
2022/01/01 00:53:52;;;;;;;6.77;5.13;;;16.70;99.90;;;;;;5011729;28;20225;-78
2022/01/01 00:56:17;;;;;;;8.10;5.67;;;16.70;99.90;;;;;;4977821;28;20990;-78
2022/01/01 00:58:43;;;;;;;5.33;4.20;;;16.70;99.90;;;;;;5011333;28;20621;-77
2022/01/01 01:01:09;;;;;;;9.80;4.53;;;16.70;99.90;;;;;;4993560;28;20577;-78
2022/01/01 01:03:35;;;;;;;6.27;4.10;;;16.70;99.90;;;;;;5013218;28;20197;-78
2022/01/01 01:06:01;;;;;;;4.50;3.57;;;16.70;99.90;;;;;;5014142;28;20174;-79
2022/01/01 01:08:28;;;;;;;8.47;4.70;;;16.70;99.90;;;;;;5013274;28;20565;-79
2022/01/01 01:10:56;;;;;;;7.10;4.70;;;16.70;99.90;;;;;;4996010;28;20943;-79
2022/01/01 01:13:22;;;;;;;10.87;4.70;;;16.70;99.90;;;;;;4995633;28;20616;-79
2022/01/01 01:15:48;;;;;;;8.73;4.80;;;16.80;99.90;;;;;;4995882;28;20561;-79
2022/01/01 01:18:14;;;;;;;7.40;5.03;;;16.80;99.90;;;;;;5012172;28;20632;-79
2022/01/01 01:20:41;;;;;;;7.33;5.50;;;16.70;99.90;;;;;;5012143;28;20627;-79
2022/01/01 01:23:07;;;;;;;10.30;5.77;;;16.70;99.90;;;;;;5013610;28;20618;-78
2022/01/01 01:25:39;;;;;;;8.10;6.07;;;16.70;99.90;;;;;;5014728;28;20573;-78
2022/01/01 01:28:08;;;;;;;5.27;4.77;;;16.80;99.90;;;;;;5014349;28;20577;-79
2022/01/01 01:30:35;;;;;;;5.93;4.87;;;16.70;99.90;;;;;;5017414;28;20568;-79
2022/01/01 01:33:00;;;;;;;8.60;4.83;;;16.70;99.90;;;;;;5013936;28;20597;-79
2022/01/01 01:35:26;;;;;;;7.23;4.60;;;16.70;99.90;;;;;;5014406;28;21140;-78
2022/01/01 01:37:52;;;;;;;8.80;6.27;;;16.70;99.90;;;;;;4997138;28;20632;-79
2022/01/01 01:40:18;;;;;;;7.07;5.20;;;16.70;99.90;;;;;;4997280;28;20245;-79
2022/01/01 01:42:44;;;;;;;9.23;5.70;;;16.80;99.90;;;;;;5014558;28;20179;-79
2022/01/01 01:45:15;;;;;;;11.27;5.60;;;16.70;99.90;;;;;;4980339;28;20193;-79
2022/01/01 01:47:42;;;;;;;9.00;5.33;;;16.70;99.90;;;;;;5013991;28;20626;-80
2022/01/01 01:50:11;;;;;;;8.47;5.87;;;16.70;99.90;;;;;;5013119;28;20635;-80
2022/01/01 01:52:37;;;;;;;9.53;6.20;;;16.70;99.90;;;;;;5013754;28;20601;-79
2022/01/01 01:55:06;;;;;;;8.57;6.17;;;16.70;99.90;;;;;;5013798;28;20627;-79
2022/01/01 01:57:35;;;;;;;8.30;5.67;;;16.70;99.90;;;;;;4995939;28;21210;-80
2022/01/01 02:00:19;;;;;;;8.47;6.23;;;16.70;99.90;;;;;;5013670;28;20561;-79
2022/01/01 02:02:45;;;;;;;7.93;5.87;;;16.70;99.90;;;;;;4981188;28;20616;-78
2022/01/01 02:05:11;;;;;;;9.40;6.10;;;16.70;99.90;;;;;;4995994;28;20970;-78
2022/01/01 02:07:37;;;;;;;9.60;6.27;;;16.70;99.90;;;;;;5017018;28;20182;-79
2022/01/01 02:10:04;;;;;;;10.00;6.20;;;16.70;99.90;;;;;;5013506;28;20174;-79
2022/01/01 02:12:30;;;;;;;13.27;6.90;;;16.70;99.90;;;;;;5013130;28;20627;-79
2022/01/01 02:17:25;;;;;;;9.20;6.30;;;16.70;99.90;;;;;;4995845;28;20675;-80
2022/01/01 02:20:00;;;;;;;9.47;5.90;;;16.70;99.90;;;;;;5013158;28;20601;-79
2022/01/01 02:22:45;;;;;;;7.13;5.30;;;16.80;99.90;;;;;;5013095;28;20647;-79
2022/01/01 02:25:11;;;;;;;9.40;5.90;;;16.80;99.90;;;;;;4995413;28;20569;-79
2022/01/01 02:27:38;;;;;;;5.93;4.67;;;16.80;99.90;;;;;;4995822;28;20577;-78
2022/01/01 02:30:09;;;;;;;8.80;5.47;;;16.80;99.90;;;;;;4995742;28;20927;-78
2022/01/01 02:32:35;;;;;;;9.57;5.20;;;16.80;99.90;;;;;;4995284;28;20605;-79
2022/01/01 02:35:01;;;;;;;8.00;5.10;;;16.80;99.90;;;;;;4995304;28;21203;-78
2022/01/01 02:37:27;;;;;;;9.50;5.40;;;16.80;99.90;;;;;;4995411;28;20656;-79
2022/01/01 02:39:52;;;;;;;9.10;5.37;;;16.80;99.90;;;;;;5012907;28;20273;-79
2022/01/01 02:42:20;;;;;;;9.00;5.83;;;16.80;99.90;;;;;;5012565;28;20198;-79
2022/01/01 02:44:47;;;;;;;8.43;6.83;;;16.80;99.90;;;;;;5018359;28;20175;-80
2022/01/01 02:47:12;;;;;;;8.63;5.00;;;16.70;99.90;;;;;;5013172;28;20660;-79
2022/01/01 02:49:39;;;;;;;7.17;4.83;;;16.80;99.90;;;;;;4995232;28;20684;-80
2022/01/01 02:52:05;;;;;;;7.50;5.27;;;16.70;99.90;;;;;;4994835;28;20202;-80
2022/01/01 02:54:30;;;;;;;7.93;4.77;;;16.70;99.90;;;;;;5012683;28;20643;-80
2022/01/01 02:56:56;;;;;;;8.13;5.13;;;16.70;99.90;;;;;;5012541;28;20573;-80
2022/01/01 02:59:22;;;;;;;11.67;5.23;;;16.70;99.90;;;;;;5012726;28;20188;-80
2022/01/01 03:01:48;;;;;;;8.50;4.37;;;16.70;99.90;;;;;;5012239;28;20605;-80
2022/01/01 03:04:13;;;;;;;8.70;4.43;;;16.70;99.90;;;;;;5012326;28;20170;-79
2022/01/01 03:06:39;;;;;;;10.10;4.60;;;16.70;99.90;;;;;;5012410;28;20166;-80
2022/01/01 03:09:05;;;;;;;8.73;4.07;;;16.70;99.90;;;;;;4994944;28;20709;-81
2022/01/01 03:11:31;;;;;;;5.97;4.67;;;16.70;99.90;;;;;;4994380;28;20570;-80
2022/01/01 03:13:57;;;;;;;10.60;4.50;;;16.70;99.90;;;;;;4994541;28;20516;-80
2022/01/01 03:16:22;;;;;;;6.53;3.60;;;16.70;99.90;;;;;;5012274;28;20250;-81
2022/01/01 03:18:48;;;;;;;6.30;4.03;;;16.70;99.90;;;;;;5012236;28;20705;-81
2022/01/01 03:21:14;;;;;;;5.60;3.37;;;16.70;99.90;;;;;;5017475;28;20925;-81
2022/01/01 03:23:40;;;;;;;6.70;4.10;;;16.70;99.90;;;;;;5011580;28;20190;-80
2022/01/01 03:26:06;;;;;;;5.13;3.63;;;16.70;99.90;;;;;;5011908;28;20193;-80
2022/01/01 03:28:32;;;;;;;6.13;3.30;;;16.70;99.90;;;;;;4994137;28;20182;-80
2022/01/01 03:30:58;;;;;;;7.97;3.57;;;16.70;99.90;;;;;;4996291;28;20192;-80
2022/01/01 03:33:24;;;;;;;5.60;3.40;;;16.70;99.90;;;;;;5011981;28;20613;-80
2022/01/01 03:35:50;;;;;;;6.60;3.53;;;16.70;99.90;;;;;;5012214;28;20930;-79
2022/01/01 03:38:16;;;;;;;5.90;3.37;;;16.70;99.90;;;;;;4994433;28;21203;-80
2022/01/01 03:40:43;;;;;;;8.07;3.03;;;16.70;99.90;;;;;;5012267;28;20562;-80
2022/01/01 03:43:09;;;;;;;7.03;3.90;;;16.70;99.90;;;;;;5011613;28;20604;-80
2022/01/01 03:45:36;;;;;;;4.70;2.83;;;16.70;99.90;;;;;;4994583;28;20577;-80
2022/01/01 03:48:07;;;;;;;6.13;2.97;;;16.70;99.90;;;;;;5011784;28;20577;-80
2022/01/01 03:50:33;;;;;;;6.90;3.40;;;16.70;99.90;;;;;;5011796;28;20613;-79
2022/01/01 03:52:59;;;;;;;6.90;3.27;;;16.70;99.90;;;;;;4961555;28;20609;-79
2022/01/01 03:55:25;;;;;;;5.57;3.10;;;16.70;99.90;;;;;;5011785;28;20942;-79
2022/01/01 03:57:51;;;;;;;4.93;2.47;;;16.70;99.90;;;;;;4981818;28;20737;-79
2022/01/01 04:00:17;;;;;;;7.37;2.87;;;16.60;99.90;;;;;;5012930;28;20166;-79
2022/01/01 04:02:42;;;;;;;4.10;2.23;;;16.60;99.90;;;;;;5011672;28;20197;-79
2022/01/01 04:05:09;;;;;;;4.10;2.50;;;16.60;99.90;;;;;;5011407;28;20623;-80
2022/01/01 04:07:34;;;;;;;3.90;2.80;;;16.60;99.90;;;;;;4994181;28;20173;-79
2022/01/01 04:10:00;;;;;;;7.57;2.47;;;16.60;99.90;;;;;;5011587;28;21117;-79
2022/01/01 04:12:26;;;;;;;3.50;2.40;;;16.60;99.90;;;;;;5011464;28;20212;-78
2022/01/01 04:14:54;;;;;;;4.40;2.20;;;16.60;99.90;;;;;;4994580;28;20181;-79
2022/01/01 04:17:20;;;;;;;5.27;2.10;;;16.60;99.90;;;;;;5011643;28;20613;-78
2022/01/01 04:19:49;;;;;;;4.70;2.03;;;16.60;99.90;;;;;;4994250;28;20636;-78
2022/01/01 04:22:18;;;;;;;5.13;2.70;;;16.60;99.90;;;;;;5011645;28;20692;-79
2022/01/01 04:24:52;;;;;;;5.00;2.37;;;16.60;99.90;;;;;;4978048;28;20582;-79
2022/01/01 04:27:36;;;;;;;4.67;2.37;;;16.60;99.90;;;;;;4994870;28;20584;-78
2022/01/01 04:30:13;;;;;;;5.30;3.30;;;16.60;99.90;;;;;;4995082;28;20581;-78
2022/01/01 04:32:39;;;;;;;4.90;2.37;;;16.60;99.90;;;;;;5011628;28;20621;-79
2022/01/01 04:35:10;;;;;;;6.00;2.37;;;16.60;99.90;;;;;;5017292;28;20676;-79
2022/01/01 04:37:39;;;;;;;3.83;1.70;;;16.60;99.90;;;;;;5012753;28;20627;-79
2022/01/01 04:40:09;;;;;;;4.33;2.67;;;16.60;99.90;;;;;;4997778;28;20581;-79
2022/01/01 04:42:47;;;;;;;5.47;2.30;;;16.60;99.90;;;;;;4981395;28;20632;-79
2022/01/01 04:45:16;;;;;;;4.00;2.20;;;16.60;99.90;;;;;;4997633;28;20693;-79
2022/01/01 04:47:56;;;;;;;7.63;2.43;;;16.60;99.90;;;;;;5014940;28;20609;-80
2022/01/01 04:50:30;;;;;;;8.13;2.00;;;16.60;99.90;;;;;;4996372;28;20593;-79
2022/01/01 04:52:56;;;;;;;5.63;2.20;;;16.60;99.90;;;;;;5014619;28;20601;-79
2022/01/01 04:55:23;;;;;;;4.27;1.67;;;16.50;99.90;;;;;;4997463;28;20593;-79
2022/01/01 04:57:57;;;;;;;3.90;1.77;;;16.60;99.90;;;;;;4989140;28;20721;-79
2022/01/01 05:00:28;;;;;;;3.83;2.00;;;16.50;99.90;;;;;;5013289;28;20588;-79
2022/01/01 05:03:06;;;;;;;2.97;1.60;;;16.50;99.90;;;;;;5013880;28;20609;-79
2022/01/01 05:05:44;;;;;;;6.00;1.90;;;16.50;99.90;;;;;;4981164;28;20588;-81
2022/01/01 05:08:22;;;;;;;4.73;2.07;;;16.50;99.90;;;;;;5014891;28;20580;-80
2022/01/01 05:11:15;;;;;;;4.50;1.87;;;16.50;99.90;;;;;;5014277;28;20588;-81
2022/01/01 05:14:12;;;;;;;2.73;1.37;;;16.50;99.90;;;;;;5016316;28;20656;-80
2022/01/01 05:16:43;;;;;;;3.03;1.20;;;16.50;99.90;;;;;;5014471;28;20577;-80
2022/01/01 05:19:22;;;;;;;4.57;2.70;;;16.50;99.90;;;;;;5014315;28;21068;-80
2022/01/01 05:21:48;;;;;;;7.00;4.03;;;16.50;99.90;;;;;;5013884;28;20655;-79
2022/01/01 05:24:18;;;;;;;5.33;1.63;;;16.50;99.90;;;;;;5013577;28;21129;-78
2022/01/01 05:26:45;;;;;;;2.93;1.80;;;16.50;99.90;;;;;;4996697;28;20641;-79
2022/01/01 05:29:10;;;;;;;5.63;2.47;;;16.40;99.90;;;;;;5014347;28;20581;-79
2022/01/01 05:31:36;;;;;;;3.50;1.70;;;16.40;99.90;;;;;;5014124;28;20672;-79
2022/01/01 05:34:03;;;;;;;3.53;1.07;;;16.40;99.90;;;;;;5013919;28;20605;-79
2022/01/01 05:36:29;;;;;;;3.10;1.10;;;16.50;99.90;;;;;;5014500;28;20224;-79
2022/01/01 05:38:55;;;;;;;6.60;1.30;;;16.40;99.90;;;;;;5014169;28;20628;-78
2022/01/01 05:41:21;;;;;;;4.53;1.23;;;16.50;99.90;;;;;;4980472;28;20581;-79
2022/01/01 05:43:47;;;;;;;5.40;1.60;;;16.50;99.90;;;;;;4996217;28;20658;-79
2022/01/01 05:46:13;;;;;;;3.53;1.50;;;16.40;99.90;;;;;;5013980;28;20638;-79
2022/01/01 05:48:38;;;;;;;3.60;1.73;;;16.40;99.90;;;;;;5014193;28;20682;-79
2022/01/01 05:51:05;;;;;;;4.40;1.90;;;16.40;99.90;;;;;;5013487;28;20170;-78
2022/01/01 05:53:30;;;;;;;3.60;1.33;;;16.40;99.90;;;;;;5013329;28;20205;-77
2022/01/01 05:55:56;;;;;;;4.03;1.50;;;16.40;99.90;;;;;;5013743;28;20569;-78
2022/01/01 05:58:22;;;;;;;3.30;1.30;;;16.40;99.90;;;;;;5013666;28;20213;-78
2022/01/01 06:00:47;;;;;;;3.80;1.20;;;16.40;99.90;;;;;;5013835;28;20158;-78
2022/01/01 06:03:15;;;;;;;3.13;1.60;;;16.50;99.90;;;;;;4995573;28;20280;-78
2022/01/01 06:05:41;;;;;;;4.00;1.53;;;16.50;99.90;;;;;;5013596;28;20225;-78
2022/01/01 06:08:07;;;;;;;5.90;2.57;;;16.50;99.90;;;;;;4996079;28;20584;-78
2022/01/01 06:10:33;;;;;;;2.23;1.33;;;16.50;99.90;;;;;;4995902;28;20620;-78
2022/01/01 06:12:58;;;;;;;3.80;1.30;;;16.50;99.90;;;;;;5012957;28;20205;-77
2022/01/01 06:15:24;;;;;;;5.60;1.20;;;16.50;99.90;;;;;;5013244;28;20179;-78
2022/01/01 06:17:50;;;;;;;4.20;1.87;;;16.50;99.90;;;;;;4996051;28;20711;-78
2022/01/01 06:20:16;;;;;;;3.93;1.17;;;16.50;99.90;;;;;;5013272;28;20198;-78
2022/01/01 06:22:42;;;;;;;4.80;1.40;;;16.40;99.90;;;;;;4979524;28;20232;-78
2022/01/01 06:25:09;;;;;;;4.67;1.53;;;16.40;99.90;;;;;;4995749;28;20573;-78
2022/01/01 06:27:35;;;;;;;4.50;1.20;;;16.40;99.90;;;;;;5013535;28;20588;-78
2022/01/01 06:30:03;;;;;;;2.17;1.10;;;16.40;99.90;;;;;;4995233;28;21228;-78
2022/01/01 06:32:31;;;;;;;4.17;1.23;;;16.40;99.90;;;;;;4995363;28;20597;-78
2022/01/01 06:34:58;;;;;;;3.80;1.17;;;16.40;99.90;;;;;;4995180;28;20565;-77
2022/01/01 06:37:24;;;;;;;8.67;1.50;;;16.40;99.90;;;;;;5012883;28;20699;-78
2022/01/01 06:39:50;;;;;;;4.43;1.20;;;16.40;99.90;;;;;;4995617;28;20669;-78
2022/01/01 06:42:16;;;;;;;4.37;1.10;;;16.40;99.90;;;;;;4995301;28;20958;-78
2022/01/01 06:44:42;;;;;;;4.40;1.03;;;16.40;99.90;;;;;;4995183;28;20166;-78
2022/01/01 06:47:11;;;;;;;4.33;1.13;;;16.40;99.90;;;;;;5012790;28;20590;-78
2022/01/01 06:49:37;;;;;;;4.13;1.43;;;16.40;99.90;;;;;;4995390;28;20585;-78
2022/01/01 06:52:03;;;;;;;3.63;1.30;;;16.40;99.90;;;;;;4996368;28;20597;-78
2022/01/01 06:54:29;;;;;;;2.73;1.10;;;16.40;99.90;;;;;;5012708;28;20162;-77
2022/01/01 06:56:55;;;;;;;3.23;1.20;;;16.40;99.90;;;;;;5012744;28;20962;-78
2022/01/01 06:59:21;;;;;;;3.23;1.47;;;16.40;99.90;;;;;;5012654;28;20640;-78
2022/01/01 07:01:47;;;;;;;4.30;1.13;;;16.40;99.90;;;;;;4994722;28;20172;-78
2022/01/01 07:04:13;;;;;;;3.23;1.10;;;16.40;99.90;;;;;;4995571;28;20257;-78
2022/01/01 07:06:38;;;;;;;4.67;1.73;;;16.40;99.90;;;;;;5012585;28;20660;-79
2022/01/01 07:09:04;;;;;;;4.60;1.83;;;16.40;99.90;;;;;;4995046;28;20178;-79
2022/01/01 07:11:30;;;;;;;3.50;1.20;;;16.40;99.90;;;;;;5012072;28;20170;-78
2022/01/01 07:13:56;;;;;;;8.43;3.33;;;16.40;99.90;;;;;;5012087;28;20603;-78
2022/01/01 07:16:22;;;;;;;4.23;1.10;;;16.40;99.90;;;;;;5012332;28;20629;-78
2022/01/01 07:18:47;;;;;;;2.90;1.00;;;16.40;99.90;;;;;;5012220;28;20210;-79
2022/01/01 07:21:13;;;;;;;3.97;1.53;;;16.30;99.90;;;;;;5012334;28;20301;-78
2022/01/01 07:23:39;;;;;;;3.10;1.93;;;16.30;99.90;;;;;;4994592;28;20197;-78
2022/01/01 07:26:05;;;;;;;2.37;1.00;;;16.30;99.90;;;;;;5012653;28;20245;-78
2022/01/01 07:28:30;;;;;;;2.80;1.07;;;16.40;99.90;;;;;;5012265;28;20625;-79
2022/01/01 07:30:56;;;;;;;3.17;1.10;;;16.30;99.90;;;;;;4994605;28;20228;-79
2022/01/01 07:33:22;;;;;;;4.70;1.23;;;16.30;99.90;;;;;;5011914;28;20314;-79
2022/01/01 07:35:48;;;;;;;2.80;1.13;;;16.30;99.90;;;;;;5012232;28;20166;-79
2022/01/01 07:38:14;;;;;;;2.80;1.10;;;16.30;99.90;;;;;;4978136;28;20631;-79
2022/01/01 07:40:40;;;;;;;4.27;1.20;;;16.30;99.90;;;;;;5013451;28;20166;-79
2022/01/01 07:43:13;;;;;;;3.60;0.90;;;16.30;99.90;;;;;;4994011;28;20186;-79
2022/01/01 07:45:40;;;;;;;3.53;1.50;;;16.30;99.90;;;;;;5012009;28;20564;-79
2022/01/01 07:48:07;;;;;;;3.30;1.00;;;16.30;99.90;;;;;;4978122;28;20628;-79
2022/01/01 07:50:33;;;;;;;5.83;1.50;;;16.30;99.90;;;;;;4994607;28;21155;-80
2022/01/01 07:52:59;;;;;;;2.43;0.80;;;16.20;99.90;;;;;;4993955;28;20629;-79
2022/01/01 07:55:25;;;;;;;2.60;0.90;;;16.20;99.90;;;;;;4994369;28;20182;-79
2022/01/01 07:57:51;;;;;;;3.33;1.10;;;16.30;99.90;;;;;;5011568;28;20672;-79
2022/01/01 08:00:17;;;;;;;5.63;1.10;;;16.30;99.90;;;;;;5011602;28;20589;-79
2022/01/01 08:02:45;;;;;;;3.63;1.00;;;16.30;99.90;;;;;;4994186;28;20198;-79
2022/01/01 08:05:12;;;;;;;2.50;0.80;;;16.30;99.90;;;;;;4993962;28;21140;-79
2022/01/01 08:07:38;;;;;;;2.90;0.70;;;16.30;99.90;;;;;;5011712;28;20576;-79
2022/01/01 08:10:05;;;;;;;2.50;1.10;;;16.30;99.90;;;;;;4994203;28;20648;-79
2022/01/01 08:12:31;;;;;;;3.10;1.13;;;16.30;99.90;;;;;;4994814;28;20617;-80
2022/01/01 08:14:57;;;;;;;4.07;0.90;;;16.30;99.90;;;;;;5015558;28;20568;-79
2022/01/01 08:17:24;;;;;;;5.50;1.00;;;16.30;99.90;;;;;;5020337;28;20565;-79
2022/01/01 08:19:53;;;;;;;2.90;0.90;;;16.40;99.90;;;;;;5015686;28;20558;-79
2022/01/01 08:22:19;;;;;;;4.03;0.90;;;16.40;99.90;;;;;;5015329;28;20624;-79
2022/01/01 08:24:46;;;;;;;2.77;0.90;;;16.50;99.90;;;;;;5015236;28;20569;-80
2022/01/01 08:27:12;;;;;;;2.63;1.50;;;16.50;99.90;;;;;;4981059;28;20565;-80
2022/01/01 08:29:37;;;;;;;2.60;0.90;;;16.60;99.90;;;;;;4997883;28;20895;-80
2022/01/01 08:32:06;;;;;;;2.37;1.07;;;16.60;99.90;;;;;;4998008;28;20601;-80
2022/01/01 08:34:33;;;;;;;3.43;1.47;;;16.70;99.90;;;;;;5015166;28;20573;-80
2022/01/01 08:37:01;;;;;;;3.20;0.80;;;16.70;99.90;;;;;;5015591;28;20565;-80
2022/01/01 08:39:27;;;;;;;3.07;1.17;;;16.80;99.90;;;;;;5013903;28;20624;-80
2022/01/01 08:41:53;;;;;;;2.80;2.23;;;16.80;99.90;;;;;;5015357;28;20935;-80
2022/01/01 08:44:19;;;;;;;2.50;1.00;;;16.90;99.90;;;;;;5015459;28;20225;-80
2022/01/01 08:46:44;;;;;;;2.23;1.00;;;16.90;99.90;;;;;;5015521;28;20265;-80
2022/01/01 08:49:11;;;;;;;5.30;1.30;;;17.00;99.90;;;;;;5015651;28;20254;-80
2022/01/01 08:51:38;;;;;;;3.47;0.90;;;17.00;99.90;;;;;;5014842;28;20597;-80
2022/01/01 08:54:04;;;;;;;2.70;1.37;;;17.00;99.90;;;;;;5016556;28;20601;-80
2022/01/01 08:56:30;;;;;;;1.90;1.00;;;17.10;99.90;;;;;;5014831;28;20577;-80
2022/01/01 08:58:56;;;;;;;2.50;0.90;;;17.20;99.90;;;;;;5014920;28;20620;-80
2022/01/01 09:01:22;;;;;;;2.70;0.90;;;17.20;99.90;;;;;;5014915;28;20570;-80
2022/01/01 09:03:48;;;;;;;3.97;1.10;;;17.20;99.90;;;;;;5014860;28;20210;-79
2022/01/01 09:06:14;;;;;;;3.67;1.30;;;17.10;99.90;;;;;;4997203;28;20162;-79
2022/01/01 09:08:42;;;;;;;2.17;1.13;;;17.10;99.90;;;;;;5014864;28;20174;-79
2022/01/01 09:11:10;;;;;;;2.07;0.87;;;17.00;99.90;;;;;;4997248;28;20928;-79
2022/01/01 09:13:41;;;;;;;1.90;1.00;;;17.00;99.90;;;;;;5014319;28;20611;-79
2022/01/01 09:16:08;;;;;;;3.20;1.30;;;17.00;99.90;;;;;;5014579;28;20576;-79
2022/01/01 09:18:34;;;;;;;3.23;0.93;;;17.10;99.90;;;;;;5014496;28;20872;-78
2022/01/01 09:21:00;;;;;;;3.40;1.20;;;17.00;99.90;;;;;;5014585;28;20558;-78
2022/01/01 09:23:26;;;;;;;3.30;1.00;;;17.00;99.90;;;;;;5013957;28;20593;-78
2022/01/01 09:25:52;;;;;;;2.00;0.90;;;17.00;99.90;;;;;;4996923;28;20871;-78
2022/01/01 09:28:18;;;;;;;4.40;1.10;;;17.10;99.90;;;;;;4997080;28;20920;-78
2022/01/01 09:30:44;;;;;;;2.93;0.93;;;17.10;99.90;;;;;;5017117;28;20210;-79
2022/01/01 09:33:12;;;;;;;1.77;0.80;;;17.20;99.90;;;;;;4996825;28;20590;-78
2022/01/01 09:35:38;;;;;;;3.70;1.20;;;17.30;99.90;;;;;;4996699;28;20722;-78
2022/01/01 09:38:04;;;;;;;2.23;1.00;;;17.40;99.90;;;;;;4996614;28;20731;-78
2022/01/01 09:40:31;;;;;;;3.53;1.07;;;17.40;99.90;;;;;;4996782;28;20684;-78
2022/01/01 09:42:58;;;;;;;3.67;1.00;;;17.50;99.90;;;;;;5013662;28;20662;-77
2022/01/01 09:45:24;;;;;;;3.63;1.20;;;17.60;99.90;;;;;;5013981;28;21158;-78
2022/01/01 09:47:50;;;;;;;2.70;1.20;;;17.70;99.90;;;;;;5014120;28;20674;-78
2022/01/01 09:50:24;;;;;;;3.23;1.30;;;17.90;99.90;;;;;;4997621;28;20565;-78
2022/01/01 09:52:49;;;;;;;3.47;1.73;;;17.90;99.90;;;;;;4995882;28;20616;-78
2022/01/01 09:55:15;;;;;;;2.27;1.00;;;17.90;99.90;;;;;;4996379;28;20178;-78
2022/01/01 09:57:42;;;;;;;2.57;0.97;;;17.90;99.90;;;;;;5013870;28;20205;-78
2022/01/01 10:00:08;;;;;;;1.60;0.90;;;18.00;99.90;;;;;;5013979;28;20562;-78
2022/01/01 10:02:34;;;;;;;3.67;1.10;;;18.00;99.90;;;;;;4996066;28;20201;-78
2022/01/01 10:05:04;;;;;;;4.03;1.20;;;18.00;99.90;;;;;;4996126;28;20569;-78
2022/01/01 10:07:31;;;;;;;2.37;1.10;;;18.00;99.90;;;;;;4999776;28;20166;-79
2022/01/01 10:09:57;;;;;;;3.87;0.90;;;18.00;99.90;;;;;;5013872;28;20561;-78
2022/01/01 10:12:41;;;;;;;4.60;1.10;;;18.00;99.90;;;;;;5013482;28;20625;-78
2022/01/01 10:15:07;;;;;;;2.23;1.10;;;18.00;99.90;;;;;;4995908;28;20592;-78
2022/01/01 10:17:34;;;;;;;4.53;1.23;;;18.00;99.90;;;;;;5013458;28;20666;-79
2022/01/01 10:19:59;;;;;;;2.60;1.70;;;18.10;99.90;;;;;;5013732;28;20565;-79
2022/01/01 10:22:25;;;;;;;4.03;1.67;;;18.10;99.90;;;;;;4992378;28;20960;-82
2022/01/01 10:28:05;;;;;;;2.30;0.90;;;18.10;99.90;;;;;;5012854;28;20597;-81
2022/01/01 10:30:36;;;;;;;2.53;1.00;;;18.10;99.90;;;;;;5012031;28;20668;-81
2022/01/01 10:33:14;;;;;;;2.50;1.60;;;18.10;99.90;;;;;;5012811;28;20680;-81
2022/01/01 10:35:42;;;;;;;3.47;1.00;;;18.10;99.90;;;;;;4994897;28;20581;-81
2022/01/01 10:38:26;;;;;;;2.77;1.20;;;18.10;99.90;;;;;;5011862;28;20628;-81
2022/01/01 10:41:03;;;;;;;2.80;1.00;;;18.10;99.90;;;;;;4979297;28;20594;-81
2022/01/01 10:43:37;;;;;;;2.00;1.10;;;18.20;99.90;;;;;;4975558;28;20602;-81
2022/01/01 10:46:05;;;;;;;1.70;0.93;;;18.20;99.90;;;;;;4993313;28;20609;-81
2022/01/01 10:51:03;;;;;;;3.20;1.43;;;18.20;99.90;;;;;;4997951;28;20618;-83
2022/01/01 10:53:29;;;;;;;1.70;0.93;;;18.10;99.90;;;;;;4997969;28;20637;-83
2022/01/01 10:56:00;;;;;;;1.97;1.00;;;18.00;99.90;;;;;;4988600;28;21184;-83
2022/01/01 10:58:34;;;;;;;4.03;1.00;;;18.00;99.90;;;;;;5012283;28;21046;-82
2022/01/01 11:01:09;;;;;;;1.60;0.80;;;17.90;99.90;;;;;;5012375;28;20601;-83
2022/01/01 11:03:36;;;;;;;2.03;1.00;;;17.90;99.90;;;;;;4978192;28;20631;-82
2022/01/01 11:06:06;;;;;;;3.33;1.07;;;18.00;99.90;;;;;;5012217;28;20569;-83
2022/01/01 11:08:33;;;;;;;3.13;1.10;;;18.00;99.90;;;;;;4994336;28;20597;-84
2022/01/01 11:10:59;;;;;;;2.33;0.90;;;17.90;99.90;;;;;;4995318;28;20632;-84
2022/01/01 11:13:26;;;;;;;3.33;1.23;;;17.90;99.90;;;;;;5012162;28;20613;-83
2022/01/01 11:15:52;;;;;;;2.90;1.10;;;18.00;99.90;;;;;;5012549;28;20588;-83
2022/01/01 11:18:18;;;;;;;2.80;1.13;;;18.00;99.90;;;;;;5012240;28;20617;-84
2022/01/01 11:20:44;;;;;;;3.53;1.07;;;18.00;99.90;;;;;;5018238;28;20649;-83
2022/01/01 11:23:12;;;;;;;2.53;1.30;;;18.10;99.90;;;;;;4996013;28;21049;-83
2022/01/01 11:25:41;;;;;;;2.60;1.37;;;18.10;99.90;;;;;;4995764;28;20257;-84
2022/01/01 11:28:10;;;;;;;3.30;1.10;;;18.10;99.90;;;;;;5004583;28;20613;-83
2022/01/01 11:30:41;;;;;;;2.50;1.03;;;18.10;99.90;;;;;;4993019;28;20661;-83
2022/01/01 11:33:12;;;;;;;4.70;1.43;;;18.10;99.90;;;;;;4974994;28;20630;-82
2022/01/01 11:35:44;;;;;;;1.60;0.83;;;18.00;99.90;;;;;;4992434;28;20585;-83
2022/01/01 11:38:16;;;;;;;1.77;0.97;;;18.00;99.90;;;;;;4975242;28;20629;-82
2022/01/01 11:40:42;;;;;;;2.87;1.10;;;18.00;99.90;;;;;;4992212;28;20566;-78
2022/01/01 11:43:30;;;;;;;3.77;1.00;;;18.00;99.90;;;;;;4974627;28;20610;-79
2022/01/01 11:46:03;;;;;;;2.80;1.10;;;17.90;99.90;;;;;;4991009;28;20794;-79
2022/01/01 11:48:31;;;;;;;1.60;1.00;;;17.90;99.90;;;;;;4990392;28;20595;-77
2022/01/01 11:51:18;;;;;;;3.00;1.20;;;17.90;99.90;;;;;;4974874;28;20600;-78
2022/01/01 11:54:09;;;;;;;1.77;1.00;;;17.80;99.90;;;;;;4991600;28;20685;-78
2022/01/01 11:56:50;;;;;;;2.80;1.10;;;17.70;99.90;;;;;;4975027;28;21162;-78
2022/01/01 11:59:38;;;;;;;2.70;1.00;;;17.70;99.90;;;;;;4982673;28;21248;-77
2022/01/01 12:02:05;;;;;;;4.77;1.10;;;17.70;99.90;;;;;;4998308;28;20635;-78
2022/01/01 12:04:33;;;;;;;5.40;0.90;;;17.60;99.90;;;;;;4993898;28;20574;-77
2022/01/01 12:06:59;;;;;;;2.03;1.00;;;17.60;99.90;;;;;;5011886;28;20657;-79
2022/01/01 12:09:25;;;;;;;5.73;1.10;;;17.60;99.90;;;;;;4994054;28;20677;-78
2022/01/01 12:11:57;;;;;;;3.30;1.00;;;17.50;99.90;;;;;;4977387;28;20186;-78
2022/01/01 12:14:28;;;;;;;1.83;1.10;;;17.50;99.90;;;;;;5010411;28;20574;-77
2022/01/01 12:16:55;;;;;;;1.40;1.00;;;17.50;99.90;;;;;;5010336;28;20676;-77
2022/01/01 12:19:25;;;;;;;3.33;1.20;;;17.50;99.90;;;;;;5011662;28;20616;-78
2022/01/01 12:22:07;;;;;;;2.60;1.20;;;17.60;99.90;;;;;;5011234;28;20562;-77
2022/01/01 12:24:38;;;;;;;2.13;1.23;;;17.60;99.90;;;;;;4993606;28;20608;-78
2022/01/01 12:27:22;;;;;;;4.00;1.50;;;17.60;99.90;;;;;;5011701;28;20597;-78
2022/01/01 12:30:03;;;;;;;6.70;4.10;;;17.60;99.90;;;;;;4991876;28;20577;-77
2022/01/01 12:32:44;;;;;;;5.87;2.90;;;17.60;99.90;;;;;;4974292;28;21191;-78
2022/01/01 12:35:16;;;;;;;3.53;1.57;;;17.60;99.90;;;;;;4995396;28;20613;-78
2022/01/01 12:37:42;;;;;;;3.07;1.43;;;17.50;99.90;;;;;;4990624;28;21209;-78
2022/01/01 12:40:10;;;;;;;5.50;1.60;;;17.50;99.90;;;;;;4990438;28;20628;-78
2022/01/01 12:42:36;;;;;;;2.10;1.10;;;17.50;99.90;;;;;;4990586;28;20672;-78
2022/01/01 12:45:07;;;;;;;2.17;1.23;;;17.60;99.90;;;;;;4974331;28;20586;-77
2022/01/01 12:47:33;;;;;;;3.90;1.20;;;17.50;99.90;;;;;;4991732;28;20690;-76
2022/01/01 12:50:04;;;;;;;4.70;1.60;;;17.50;99.90;;;;;;4991737;28;20624;-78
2022/01/01 12:52:31;;;;;;;6.70;3.90;;;17.40;99.90;;;;;;5004293;28;20615;-76
2022/01/01 12:54:58;;;;;;;4.73;2.90;;;17.40;99.90;;;;;;4993736;28;20568;-77
2022/01/01 12:57:25;;;;;;;2.63;1.87;;;17.30;99.90;;;;;;4993742;28;20595;-77